Terminal Aerodrome Forecast
Issued by NWS

Home | Current Version | Previous Version | Text Only | Print | Product List | Glossary On
Versions: 1 2 3 4 5 6 7 8 9 10 11 12 13 14 15 16 17
000
FTUS46 KSGX 211132
TAFCRQ
TAF
KCRQ 211132Z 2112/2212 16007KT P6SM SCT015 OVC035
     FM211500 19011KT P6SM VCSH SCT015 OVC025
      TEMPO 2115/2118 5SM -SHRA BKN015
     FM211800 22012G18KT P6SM VCSH SCT025 BKN035
     FM220200 VRB06KT P6SM BKN025=

USA.gov is the U.S. government's official web portal to all federal, state and local government web resources and services.